Tiempo atmosférico en la estación meteorológica de Izaña, Santa Cruz de Tenerife (2371 m.)



Fecha
DESCASC
Temp. máxima en grados centígrados (hora)
DESCASC
Temp. mínima en grados centígrados (hora)
DESCASC
Temp. media en grados centígrados
DESCASC
Racha de viento máxima en m/sg (hora)
DESCASC
Velocidad máxima media en intervalos de 10 minutos(hora)
DESCASC
Precipitaciones diarias en mm
DESCASC
Precipitaciones de 00:00 a 06:00 en mm
DESCASC
Precipitaciones de 06:00 a 12:00 en mm
DESCASC
Precipitaciones de 12:00 a 18:00 en mm
DESCASC
Precipitaciones de 18:00 a 24:00 en mm
DESCASC
11-08-2020 20.2 (15:20) 11.4 (02:10) 15.8 8.61 (05:10) 7.22 (03:20) 0 0 0 0 0
10-08-2020 21.1 (15:50) 12.1 (23:20) 16.6 9.44 (19:00) 6.67 (18:50) 0 0 0 0 0
09-08-2020 20.5 (15:10) 13.5 (00:20) 17 10.28 (13:40) 7.78 (13:40) 0 0 0 0 0
08-08-2020 20.6 (15:40) 12.6 (04:10) 16.6 10 (17:50) 6.94 (18:40) 0 0 0 0 0
07-08-2020 20.4 (15:20) 11.6 (00:00) 16 9.72 (00:40) 9.17 (00:40) 0 0 0 0 0
06-08-2020 20.5 (15:40) 12.3 (03:00) 16.4 11.11 (18:30) 8.33 (18:30) 0 0 0 0 0
05-08-2020 20.5 (15:40) 11 (00:00) 15.8 10 (16:20) 8.06 (04:30) 0 0 0 0 0
04-08-2020 22.6 (13:30) 12.7 (22:10) 17.7 9.44 (23:59) 8.61 (23:59) 0 0 0 0 0
03-08-2020 24.2 (12:50) 15.4 (01:40) 19.8 12.22 (18:00) 9.17 (18:00) 0 0 0 0 0
02-08-2020 25.1 (14:50) 16.1 (07:30) 20.6 11.39 (23:30) 6.67 (19:40) 0 0 0 0 0
01-08-2020 24.4 (14:10) 15.7 (00:00) 20 12.5 (14:30) 5.83 (06:00) 0 0 0 0 0
31-07-2020 25.3 (13:40) 16.7 (23:50) 21 10.28 (11:50) 8.06 (03:20) 0 0 0 0 0
30-07-2020 26.5 (16:30) 16.3 (00:00) 21.4 13.33 (15:20) 7.78 (15:20) 0 0 0 0 0
29-07-2020 24.9 (14:00) 16.3 (00:00) 20.6 12.22 (06:40) 10.28 (06:00) 0 0 0 0 0
28-07-2020 26.8 (12:20) 18 (23:40) 22.4 13.06 (15:10) 9.72 (14:20) 0 0 0 0 0
27-07-2020 29 (13:50) 13.9 (00:00) 21.4 15.56 (10:30) 9.44 (07:50) 0 0 0 0 0
26-07-2020 21 (13:20) 11.3 (00:00) 16.2 15 (02:20) 12.22 (02:20) 0 0 0 0 0
25-07-2020 21.8 (15:00) 13.3 (23:59) 17.5 11.94 (20:40) 8.33 (19:00) 0 0 0 0 0
24-07-2020 26.1 (10:50) 15.1 (00:00) 20.6 11.94 (18:40) 9.17 (18:10) 0 0 0 0 0
23-07-2020 27.4 (12:10) 19.5 (00:00) 23.4 10.83 (17:00) 7.78 (16:20) 0 0 0 0 0
22-07-2020 25.2 (15:40) 17 (01:50) 21.1 12.78 (18:00) 9.72 (18:10) 0 0 0 0 0
21-07-2020 24.5 (14:50) 14.6 (00:00) 19.6 9.72 (17:20) 8.06 (08:40) 0 0 0 0 0
20-07-2020 23.7 (15:30) 15.8 (04:20) 19.8 13.89 (16:10) 10.56 (16:40) 0 0 0 0 0
19-07-2020 23.9 (16:40) 16.6 (00:00) 20.3 12.22 (10:30) 8.33 (11:00) 0 0 0 0 0
18-07-2020 25.2 (14:40) 17.7 (00:00) 21.5 9.72 (15:10) 5.83 (13:30) 0 0 0 0 0
17-07-2020 24.7 (14:00) 16.8 (00:00) 20.8 11.67 (03:00) 9.72 (03:10) 0 0 0 0 0
16-07-2020 24 (16:00) 17 (00:00) 20.5 11.11 (12:20) 8.06 (12:10) 0 0 0 0 0
15-07-2020 22.3 (17:10) 11.8 (05:30) 17 15.28 (00:20) 10.28 (04:30) 0 0 0 0 0

Gráficas

Temp. máximas Temp. mínimas Temp. medias Precipitaciones Rachas de viento máximas Velocidades máximas media en intervalos de 10 minutos

Datos horarios

Fecha y hora oficial Temperatura (ºC) Velocidad del viento (km/h) Dirección del viento Racha (km/h) Dirección de racha Precipitación (mm) Presión (hPa) Tendencia (hPa) Humedad (%)
2020-08-13 23:00:00 18.7 27 Oeste 38 Sudoeste 0 774.5 0.7 4
2020-08-13 22:00:00 18.7 24 Oeste 30 Oeste 0 774.3 0.8 6
2020-08-13 21:00:00 19 23 Oeste 27 Oeste 0 774 0.4 8
2020-08-13 20:00:00 20.7 17 Oeste 26 Noroeste 0 773.8 0.3 16
2020-08-13 19:00:00 21.8 17 Oeste 28 Noroeste 0 773.5 -0.3 18
2020-08-13 18:00:00 22.9 11 Noroeste 24 Oeste 0 773.6 -0.4 17
2020-08-13 17:00:00 23.5 12 Noroeste 20 Noroeste 0 773.5 -0.6 15
2020-08-13 16:00:00 23.8 9 Norte 26 Oeste 0 773.8 -0.5 16
2020-08-13 15:00:00 23.7 11 Noroeste 21 Noroeste 0 774 -- 14
2020-08-13 14:00:00 23.1 10 Norte 21 Norte 0 774.1 -- 17
2020-08-13 13:00:00 23.7 9 Norte 20 Noroeste 0 774.3 -- 16
2020-08-13 12:00:00 22.8 6 Norte 17 Este 0 774.1 -- 12
2020-08-13 11:00:00 22.7 7 Este 18 Sudoeste 0 773.7 -- 11
2020-08-13 10:00:00 21.5 5 Oeste 29 Sudoeste 0 773.1 -- 3
2020-08-13 09:00:00 19.6 20 Sudoeste 36 Sudoeste 0 772.7 -- 1
2020-08-13 08:00:00 18 26 Sudoeste 33 Sudoeste 0 772.3 -- --
2020-08-13 07:00:00 16.9 26 Sudoeste 29 Sudoeste 0 772.1 -- --
2020-08-13 06:00:00 16.6 24 Sudoeste 27 Sudoeste 0 771.9 -- --
2020-08-13 05:00:00 17.3 22 Sudoeste 26 Sudoeste 0 771.9 -- --
2020-08-13 04:00:00 16.5 6 Oeste 15 Sudoeste 0 772 -- 8
2020-08-13 03:00:00 16 7 Oeste 10 Sudoeste 0 772.4 -- 12
2020-08-13 02:00:00 16 5 Oeste 13 Oeste 0 772.8 -- 13
2020-08-13 01:00:00 16 11 Oeste 14 Oeste 0 773 -- 10
2020-08-13 00:00:00 15.9 11 Oeste 16 Oeste 0 773.1 -- 11
2020-08-12 23:00:00 15.8 14 Oeste 19 Oeste 0 773.1 -- 8
2020-08-12 22:00:00 16 19 Oeste 21 Oeste 0 772.9 -- 6
2020-08-12 21:00:00 16.3 15 Oeste 23 Oeste 0 772.5 -- 14
2020-08-12 20:00:00 19.5 14 Oeste 19 Oeste 0 772.3 -- 21
2020-08-12 19:00:00 20 12 Oeste 26 Noroeste 0 772.2 -- 28
2020-08-12 18:00:00 21.1 20 Noroeste 29 Noroeste 0 772.1 -- 24
2020-08-12 17:00:00 21.5 16 Noroeste 29 Noroeste 0 772.3 -- 18
2020-08-12 16:00:00 22.3 16 Noroeste 26 Noroeste 0 772.6 -- 19
2020-08-12 15:00:00 22.3 10 Noroeste 23 Noroeste 0 772.9 -- 15
2020-08-12 14:00:00 21.7 12 Noroeste 25 Noroeste 0 773.1 -- 24
2020-08-12 13:00:00 21.9 11 Noroeste 23 Norte 0 773.1 -- 25
2020-08-12 12:00:00 20.3 9 Noroeste 16 Noroeste 0 773.1 -- 27
2020-08-12 11:00:00 20.1 5 Oeste 15 Oeste 0 772.8 -- 19
2020-08-12 10:00:00 19 10 Oeste 19 Oeste 0 772.4 -- 19
2020-08-12 09:00:00 17.7 11 Oeste 18 Sudoeste 0 772.1 -- 9
2020-08-12 08:00:00 16 9 Oeste 18 Oeste 0 771.7 -- 6
2020-08-12 07:00:00 15 14 Oeste 17 Oeste 0 771.5 -- 5
2020-08-12 06:00:00 13.6 10 Oeste 14 Oeste 0 771.2 -- 30
2020-08-12 05:00:00 13.7 10 Oeste 14 Noroeste 0 771.2 -- 23
2020-08-12 04:00:00 13.4 14 Noroeste 18 Noroeste 0 771.3 -- 25
2020-08-12 03:00:00 14.7 10 Oeste 16 Oeste 0 771.7 -- 10
2020-08-12 02:00:00 13.9 12 Noroeste 14 Noroeste 0 772.1 -- 17
2020-08-12 01:00:00 13.3 10 Noroeste 17 Noroeste 0 772.2 -- 23
2020-08-12 00:00:00 14 9 Noroeste 14 Noroeste 0 772.4 -- 10
2020-08-11 23:00:00 13.9 8 Noroeste 18 Noroeste 0 772.4 -- 12
2020-08-11 22:00:00 13.7 13 Noroeste 22 Noroeste 0 771.9 -- 9
2020-08-11 21:00:00 13.9 16 Noroeste 25 Oeste 0 771.4 -- 12
2020-08-11 20:00:00 16.5 16 Oeste 27 Oeste 0 771.3 -- 15
2020-08-11 19:00:00 18 19 Oeste 30 Oeste 0 771.1 -- 19
2020-08-11 18:00:00 19.8 16 Noroeste 24 Noroeste 0 771.3 -- 22
2020-08-11 17:00:00 19.8 8 Oeste 24 Noroeste 0 771.4 -- 23
2020-08-11 16:00:00 20.1 13 Noroeste 25 Noroeste 0 771.4 -- 21
2020-08-11 15:00:00 19.6 13 Oeste 27 Oeste 0 771.7 -- 15
2020-08-11 14:00:00 19.2 20 Oeste 29 Noroeste 0 771.5 -- 20
2020-08-11 13:00:00 19.8 5 Este 19 Oeste 0 771.9 -- 22
2020-08-11 12:00:00 18.2 16 Oeste 29 Noroeste 0 771.7 -- 21
2020-08-11 11:00:00 17.5 19 Oeste 28 Noroeste 0 771.3 -- 21
2020-08-11 10:00:00 17 10 Noroeste 22 Oeste 0 771.2 -- 20
2020-08-11 09:00:00 15.3 18 Oeste 22 Oeste 0 770.7 -- 20
2020-08-11 08:00:00 12.8 20 Oeste 22 Oeste 0 770.5 -- 23
2020-08-11 07:00:00 12.3 15 Oeste 23 Oeste 0 770.4 -- 22
2020-08-11 06:00:00 12.1 21 Oeste 31 Noroeste 0 770.1 -- 26
2020-08-11 05:00:00 12.7 25 Oeste 30 Noroeste 0 769.9 -- 27
2020-08-11 04:00:00 11.9 21 Oeste 28 Oeste 0 770.2 -- 37
2020-08-11 03:00:00 12 23 Oeste 26 Oeste 0 770.5 -- 36
2020-08-11 02:00:00 11.6 22 Oeste 26 Oeste 0 770.9 -- 39
2020-08-11 01:00:00 12 19 Oeste 21 Oeste 0 771.4 -- 39
2020-08-11 00:00:00 12.4 18 Oeste 20 Oeste 0 771.5 -- 36
2020-08-10 23:00:00 12.5 14 Oeste 20 Noroeste 0 771.6 -- 36
2020-08-10 22:00:00 12.9 15 Oeste 22 Oeste 0 771.4 -- 34
2020-08-10 21:00:00 13.5 20 Noroeste 28 Noroeste 0 770.9 -- 31
2020-08-10 20:00:00 15.7 21 Oeste 29 Oeste 0 770.9 -- 35
2020-08-10 19:00:00 17.6 22 Noroeste 34 Oeste 0 770.9 -- 29
2020-08-10 18:00:00 19.2 11 Noroeste 31 Oeste 0 771 -- 29
2020-08-10 17:00:00 19.7 18 Oeste 32 Oeste 0 771 -- 31
2020-08-10 16:00:00 20.5 11 Noroeste 26 Noroeste 0 771.3 -- 31
2020-08-10 15:00:00 20.5 12 Noroeste 24 Noroeste 0 771.6 -- 30
2020-08-10 14:00:00 19.8 14 Noroeste 24 Noroeste 0 771.8 -- 34
2020-08-10 13:00:00 20.4 8 Noroeste 22 Noroeste 0 772 -- 31
2020-08-10 12:00:00 20.5 8 Noroeste 20 Nordeste 0 772 -- 33
2020-08-10 11:00:00 19.9 5 Noroeste 12 Sudeste 0 771.8 -- 22
2020-08-10 10:00:00 19.4 6 Oeste 10 Noroeste 0 771.7 -- 16
2020-08-10 09:00:00 17.8 9 Oeste 14 Oeste 0 771.7 -- 19
2020-08-10 08:00:00 15.2 12 Oeste 14 Oeste 0 771.5 -- 22
2020-08-10 07:00:00 14.7 10 Oeste 14 Oeste 0 771.4 -- 24
2020-08-10 06:00:00 14.7 11 Oeste 17 Noroeste 0 771.3 -- 23
2020-08-10 05:00:00 15 14 Noroeste 17 Noroeste 0 771.5 -- 21
2020-08-10 04:00:00 15.1 13 Noroeste 16 Oeste 0 771.9 -- 19
2020-08-10 03:00:00 15.7 13 Oeste 16 Oeste 0 772.1 -- 19
2020-08-10 02:00:00 14 16 Oeste 20 Noroeste 0 772.6 -- 28
2020-08-10 01:00:00 14.6 13 Noroeste 22 Noroeste 0 773 -- 25
2020-08-10 00:00:00 14.6 14 Noroeste 25 Noroeste 0 773.3 -- 23
2020-08-09 23:00:00 14.2 19 Noroeste 25 Noroeste 0 773.4 -- 36
2020-08-09 22:00:00 14.3 21 Noroeste 26 Noroeste 0 773.2 -- 41
2020-08-09 21:00:00 15.2 21 Oeste 29 Oeste 0 773 -- 38
2020-08-09 20:00:00 17.1 25 Noroeste 30 Noroeste 0 772.6 -- 38
2020-08-09 19:00:00 18.4 20 Noroeste 27 Noroeste 0 772.8 -- 39
2020-08-09 18:00:00 19.6 19 Noroeste 30 Oeste 0 773.1 -- 32
2020-08-09 17:00:00 19.9 22 Noroeste 33 Noroeste 0 773.2 -- 30
2020-08-09 16:00:00 20.2 20 Oeste 30 Noroeste 0 773.6 -- 28
2020-08-09 15:00:00 20.1 18 Oeste 30 Oeste 0 773.9 -- 32
2020-08-09 14:00:00 19.9 26 Oeste 37 Noroeste 0 774.1 -- 33
2020-08-09 13:00:00 19.1 19 Noroeste 32 Noroeste 0 774.3 -- 38
2020-08-09 12:00:00 18.6 17 Noroeste 26 Noroeste 0 774.6 -- 30
2020-08-09 11:00:00 17.5 17 Noroeste 31 Noroeste 0 774.5 -- 26
2020-08-09 10:00:00 16.2 23 Noroeste 31 Noroeste 0 774 -- 18
2020-08-09 09:00:00 15.6 19 Noroeste 26 Oeste 0 773.8 -- 19
2020-08-09 08:00:00 14.6 15 Noroeste 23 Noroeste 0 773.7 -- 11
2020-08-09 07:00:00 14 14 Noroeste 19 Noroeste 0 773.6 -- 10
2020-08-09 06:00:00 14.2 12 Noroeste 18 Noroeste 0 773.6 -- 8
2020-08-09 05:00:00 15.1 9 Noroeste 16 Noroeste 0 773.6 -- 9
2020-08-09 04:00:00 14.8 13 Noroeste 20 Noroeste 0 773.6 -- 6
2020-08-09 03:00:00 14.6 14 Noroeste 23 Oeste 0 773.9 -- 8
2020-08-09 02:00:00 14 14 Noroeste 22 Noroeste 0 774.3 -- 14
2020-08-09 01:00:00 14.3 12 Noroeste 21 Oeste 0 774.9 -- 14
2020-08-09 00:00:00 13.9 17 Noroeste 25 Noroeste 0 774.9 -- 15
2020-08-08 23:00:00 13.8 16 Noroeste 26 Noroeste 0 774.8 -- 16
2020-08-08 22:00:00 13.7 19 Noroeste 27 Oeste 0 774.5 -- 17
2020-08-08 21:00:00 14.5 17 Noroeste 28 Noroeste 0 774.2 -- 18
2020-08-08 20:00:00 16.5 23 Noroeste 31 Noroeste 0 774.1 -- 20
2020-08-08 19:00:00 17.5 21 Noroeste 36 Noroeste 0 774.1 -- 16
2020-08-08 18:00:00 18.8 25 Noroeste 36 Noroeste 0 774 -- 20
2020-08-08 17:00:00 20 17 Noroeste 30 Noroeste 0 774.4 -- 21
2020-08-08 16:00:00 19.4 21 Noroeste 31 Noroeste 0 774.6 -- 22
2020-08-08 15:00:00 20.2 20 Noroeste 34 Noroeste 0 774.8 -- 21
2020-08-08 14:00:00 19.7 19 Noroeste 30 Noroeste 0 775.3 -- 16
2020-08-08 13:00:00 19.7 16 Noroeste 26 Noroeste 0 775.5 -- 19
2020-08-08 12:00:00 18.4 16 Noroeste 28 Noroeste 0 775.6 -- 17
2020-08-08 11:00:00 17.6 17 Noroeste 23 Noroeste 0 775.3 -- 16
2020-08-08 10:00:00 16.1 18 Noroeste 22 Noroeste 0 775.1 -- 20
2020-08-08 09:00:00 15.4 11 Noroeste 17 Noroeste 0 775 -- 16
2020-08-08 08:00:00 13.9 11 Noroeste 17 Noroeste 0 774.7 -- 18
2020-08-08 07:00:00 13 16 Noroeste 19 Noroeste 0 774.3 -- 14
2020-08-08 06:00:00 13.1 13 Noroeste 17 Noroeste 0 774.3 -- 9
2020-08-08 05:00:00 13 13 Noroeste 17 Noroeste 0 774.4 -- 11
2020-08-08 04:00:00 12.7 14 Noroeste 17 Norte 0 774.6 -- 13
2020-08-08 03:00:00 12.8 16 Norte 18 Norte 0 774.6 -- 20
2020-08-08 02:00:00 12.7 14 Noroeste 20 Noroeste 0 774.9 -- 22
2020-08-08 01:00:00 12.9 15 Norte 20 Noroeste 0 775.2 -- 22
2020-08-08 00:00:00 13.4 17 Norte 21 Norte 0 775.3 -- 22
2020-08-07 23:00:00 13.8 11 Norte 14 Norte 0 775.3 -- 18
2020-08-07 22:00:00 13.3 9 Noroeste 15 Noroeste 0 774.9 -- 24
2020-08-07 21:00:00 14.4 10 Noroeste 25 Noroeste 0 774.4 -- 20
2020-08-07 20:00:00 16.1 16 Noroeste 28 Noroeste 0 774 -- 25
2020-08-07 19:00:00 17.5 19 Noroeste 28 Noroeste 0 773.8 -- 25
2020-08-07 18:00:00 19.1 16 Noroeste 27 Noroeste 0 774 -- 23
2020-08-07 17:00:00 19.6 10 Norte 32 Noroeste 0 774.1 -- 26
2020-08-07 16:00:00 19.7 15 Noroeste 30 Noroeste 0 774.2 -- 24
2020-08-07 15:00:00 20.1 12 Noroeste 27 Noroeste 0 774.5 -- 21
2020-08-07 14:00:00 19.9 16 Noroeste 27 Noroeste 0 774.6 -- 18
2020-08-07 13:00:00 19.5 14 Noroeste 31 Noroeste 0 774.7 -- 21
2020-08-07 12:00:00 18.9 18 Noroeste 26 Noroeste 0 774.6 -- 22
2020-08-07 11:00:00 18 14 Noroeste 22 Noroeste 0 774.4 -- 17
2020-08-07 10:00:00 16.1 17 Noroeste 23 Noroeste 0 774 -- 22
2020-08-07 09:00:00 14.6 18 Oeste 24 Oeste 0 773.5 -- 25
2020-08-07 08:00:00 13 22 Oeste 27 Oeste 0 773 -- 22
2020-08-07 07:00:00 11.6 19 Oeste 22 Oeste 0 772.8 -- 29
2020-08-07 06:00:00 11.8 17 Oeste 22 Oeste 0 772.6 -- 29
2020-08-07 05:00:00 11.9 16 Oeste 22 Oeste 0 772.6 -- 27
2020-08-07 04:00:00 12.4 21 Oeste 28 Oeste 0 772.6 -- 24
2020-08-07 03:00:00 13.3 26 Oeste 28 Oeste 0 772.9 -- 25
2020-08-07 02:00:00 13 22 Oeste 31 Oeste 0 773.3 -- 22
2020-08-07 01:00:00 13 31 Oeste 35 Oeste 0 773.3 -- 33
2020-08-07 00:00:00 13.1 27 Noroeste 30 Oeste 0 773.5 -- 32
2020-08-06 23:00:00 13.3 28 Oeste 32 Noroeste 0 773.4 -- 30
2020-08-06 22:00:00 13.3 28 Noroeste 33 Noroeste 0 772.9 -- 33
2020-08-06 21:00:00 14.2 26 Oeste 31 Oeste 0 772.4 -- 32
2020-08-06 20:00:00 15.9 26 Noroeste 40 Noroeste 0 772.2 -- 31
2020-08-06 19:00:00 16.9 28 Noroeste 40 Noroeste 0 771.9 -- 28
2020-08-06 18:00:00 18 26 Noroeste 35 Noroeste 0 771.9 -- 24
2020-08-06 17:00:00 19.1 10 Noroeste 31 Noroeste 0 772.1 -- 23
2020-08-06 16:00:00 19.1 21 Noroeste 39 Noroeste 0 772.1 -- 22
2020-08-06 15:00:00 19.6 21 Noroeste 33 Noroeste 0 772.5 -- 21
2020-08-06 14:00:00 19.7 12 Noroeste 25 Noroeste 0 772.5 -- 22
2020-08-06 13:00:00 19.9 12 Noroeste 26 Norte 0 772.3 -- 22
2020-08-06 12:00:00 18.3 16 Noroeste 30 Oeste 0 772.1 -- 21
2020-08-06 11:00:00 17.3 20 Oeste 29 Oeste 0 771.8 -- 21
2020-08-06 10:00:00 16.2 15 Noroeste 25 Oeste 0 771.3 -- 20
2020-08-06 09:00:00 14.4 22 Oeste 27 Oeste 0 770.9 -- 21
2020-08-06 08:00:00 12.9 25 Oeste 28 Oeste 0 770.5 -- 20
2020-08-06 07:00:00 12.7 26 Oeste 28 Oeste 0 770.3 -- 20
2020-08-06 06:00:00 12.8 24 Oeste 29 Oeste 0 770.1 -- 19
2020-08-06 05:00:00 12.7 24 Oeste 27 Oeste 0 770.2 -- 19
2020-08-06 04:00:00 12.6 22 Oeste 26 Noroeste 0 770.5 -- 22
2020-08-06 03:00:00 12.3 20 Oeste 23 Noroeste 0 770.8 -- 25
2020-08-06 02:00:00 12.9 18 Noroeste 22 Noroeste 0 771.3 -- 21
2020-08-06 01:00:00 13.2 19 Noroeste 25 Noroeste 0 771.6 -- 20
2020-08-06 00:00:00 13 20 Noroeste 27 Noroeste 0 771.8 -- 24
2020-08-05 23:00:00 13 22 Noroeste 29 Noroeste 0 771.8 -- 27
2020-08-05 22:00:00 13.1 22 Noroeste 29 Noroeste 0 771.5 -- 27
2020-08-05 21:00:00 13.8 20 Noroeste 26 Noroeste 0 771.2 -- 28
2020-08-05 20:00:00 16.1 19 Noroeste 32 Noroeste 0 771 -- 29
2020-08-05 19:00:00 17.3 21 Noroeste 32 Noroeste 0 770.9 -- 29
2020-08-05 18:00:00 18.4 21 Noroeste 33 Noroeste 0 770.9 -- 24
2020-08-05 17:00:00 19.4 19 Noroeste 36 Noroeste 0 771.2 -- 20
2020-08-05 16:00:00 20.3 13 Noroeste 32 Noroeste 0 771.4 -- 32
2020-08-05 15:00:00 20.1 14 Norte 26 Norte 0 771.7 -- 42
2020-08-05 14:00:00 19.5 9 Norte 27 Norte 0 771.8 -- 38
2020-08-05 13:00:00 19.7 12 Nordeste 29 Nordeste 0 771.8 -- 34
2020-08-05 12:00:00 19.4 16 Nordeste 29 Nordeste 0 771.8 -- 31
2020-08-05 11:00:00 16.4 18 Norte 33 Norte 0 771.5 -- 33
2020-08-05 10:00:00 15.2 21 Noroeste 34 Norte 0 771.2 -- 33
2020-08-05 09:00:00 13.5 23 Norte 31 Norte 0 771 -- 39
2020-08-05 08:00:00 11.8 20 Noroeste 27 Norte 0 770.5 -- 48
2020-08-05 07:00:00 11.3 20 Noroeste 29 Noroeste 0 770.3 -- 51
2020-08-05 06:00:00 11.5 20 Noroeste 30 Noroeste 0 770.2 -- 48
2020-08-05 05:00:00 11.8 26 Noroeste 36 Norte 0 770.3 -- 46
2020-08-05 04:00:00 12.4 25 Norte 35 Norte 0 770.5 -- 43
2020-08-05 03:00:00 13 24 Norte 35 Norte 0 770.9 -- 40
2020-08-05 02:00:00 13.2 17 Norte 30 Norte 0 771.5 -- 40
2020-08-05 01:00:00 12.8 23 Norte 35 Norte 0 771.9 -- 41
2020-08-05 00:00:00 13.5 31 Norte 34 Norte 0 771.9 -- 36
2020-08-04 23:00:00 13.1 24 Norte 28 Norte 0 772 -- 33
2020-08-04 22:00:00 12.8 19 Noroeste 25 Noroeste 0 771.6 -- 37
2020-08-04 21:00:00 14.9 14 Noroeste 23 Norte 0 771.4 -- 34
2020-08-04 20:00:00 16.9 14 Noroeste 22 Noroeste 0 771.3 -- 42
2020-08-04 19:00:00 18.5 16 Noroeste 24 Norte 0 771.3 -- 39
2020-08-04 18:00:00 19.8 10 Norte 21 Este 0 771.6 -- 33
2020-08-04 17:00:00 20.9 13 Nordeste 26 Este 0 771.8 -- 24
2020-08-04 16:00:00 21.1 14 Nordeste 30 Este 0 772 -- 23
2020-08-04 15:00:00 21.4 12 Nordeste 24 Nordeste 0 772.3 -- 28
2020-08-04 14:00:00 22.3 10 Norte 27 Nordeste 0 772.6 -- 32
2020-08-04 13:00:00 21.5 10 Norte 25 Noroeste 0 772.6 -- 28
2020-08-04 12:00:00 20.8 13 Noroeste 20 Noroeste 0 772.8 -- 5
2020-08-04 11:00:00 19.9 13 Noroeste 20 Noroeste 0 772.6 -- 4
2020-08-04 10:00:00 18.8 15 Noroeste 24 Oeste 0 772.4 -- 8
2020-08-04 09:00:00 17.3 19 Noroeste 27 Noroeste 0 772.2 -- 14
2020-08-04 08:00:00 15.9 18 Noroeste 26 Noroeste 0 772 -- 13
2020-08-04 07:00:00 15.2 18 Oeste 23 Noroeste 0 772 -- 18
2020-08-04 06:00:00 14.9 17 Oeste 25 Oeste 0 772.1 -- 14
2020-08-04 05:00:00 14.6 15 Oeste 18 Noroeste 0 772.3 -- 14
2020-08-04 04:00:00 14.8 14 Oeste 18 Oeste 0 772.7 -- 17
2020-08-04 03:00:00 15.4 14 Oeste 16 Oeste 0 773.1 -- 6
2020-08-04 02:00:00 16.4 13 Oeste 18 Oeste 0 773.8 -- 3
2020-08-04 01:00:00 16.6 13 Oeste 17 Oeste 0 774.5 -- 4
2020-08-04 00:00:00 16.7 13 Oeste 17 Oeste 0 774.9 -- 15
2020-08-03 23:00:00 16.8 13 Oeste 17 Noroeste 0 774.9 -- 15
2020-08-03 22:00:00 16.3 12 Oeste 16 Oeste 0 774.8 -- 12
2020-08-03 21:00:00 17.4 15 Oeste 26 Noroeste 0 774.7 -- 11
2020-08-03 20:00:00 19 22 Oeste 33 Oeste 0 774.7 -- 11
2020-08-03 19:00:00 20 28 Noroeste 44 Noroeste 0 774.7 -- 14
2020-08-03 18:00:00 20.7 33 Noroeste 44 Noroeste 0 774.8 -- 15
2020-08-03 17:00:00 21.5 28 Noroeste 41 Noroeste 0 775.2 -- 16
2020-08-03 16:00:00 21.6 27 Noroeste 40 Noroeste 0 775.5 -- 17
2020-08-03 15:00:00 22.4 21 Norte 34 Norte 0 775.9 -- 20
2020-08-03 14:00:00 23.4 16 Norte 32 Norte 0 776.5 -- 20
2020-08-03 13:00:00 23.6 14 Norte 32 Este 0 776.8 -- 16
2020-08-03 12:00:00 23 17 Nordeste 39 Nordeste 0 776.9 -- 14
2020-08-03 11:00:00 20.6 22 Nordeste 40 Nordeste 0 776.8 -- 14
2020-08-03 10:00:00 19.9 21 Nordeste 36 Nordeste 0 776.6 -- 15
2020-08-03 09:00:00 18.8 22 Nordeste 36 Nordeste 0 776.5 -- 17
2020-08-03 08:00:00 16.9 25 Nordeste 40 Nordeste 0 776.2 -- 24
2020-08-03 07:00:00 16.2 23 Nordeste 39 Nordeste 0 776.1 -- 38
2020-08-03 06:00:00 16 19 Nordeste 28 Nordeste 0 776.3 -- 47
2020-08-03 05:00:00 16 15 Nordeste 28 Nordeste 0 776.4 -- 46
2020-08-03 04:00:00 16.1 16 Nordeste 33 Nordeste 0 776.7 -- 46
2020-08-03 03:00:00 15.7 22 Nordeste 35 Nordeste 0 777 -- 46
2020-08-03 02:00:00 15.4 21 Nordeste 38 Nordeste 0 777.3 -- 47
2020-08-03 01:00:00 15.6 22 Nordeste 42 Nordeste 0 777.6 -- 45
2020-08-03 00:00:00 16.1 21 Nordeste 41 Nordeste 0 777.9 -- 44
2020-08-02 23:00:00 16.4 22 Nordeste 32 Nordeste 0 777.8 -- 46
2020-08-02 22:00:00 16.4 18 Nordeste 28 Nordeste 0 777.3 -- 45
2020-08-02 21:00:00 16.6 17 Noroeste 28 Noroeste 0 776.8 -- 45
2020-08-02 20:00:00 18.5 22 Noroeste 35 Noroeste 0 776.5 -- 42
2020-08-02 19:00:00 20.6 23 Noroeste 34 Noroeste 0 776.4 -- 38
2020-08-02 18:00:00 22.2 17 Noroeste 28 Noroeste 0 776.5 -- 37
2020-08-02 17:00:00 23.1 9 Norte 29 Nordeste 0 776.7 -- 36
2020-08-02 16:00:00 23.8 12 Nordeste 31 Nordeste 0 776.9 -- 32
2020-08-02 15:00:00 24 22 Nordeste 34 Nordeste 0 777.1 -- 31
2020-08-02 14:00:00 24.2 21 Nordeste 39 Nordeste 0 777.3 -- 29
2020-08-02 13:00:00 23.3 18 Nordeste 33 Nordeste 0 777.4 -- 31
2020-08-02 12:00:00 23 14 Nordeste 31 Nordeste 0 777.5 -- 32
2020-08-02 11:00:00 21.4 18 Nordeste 28 Nordeste 0 777.2 -- 36
2020-08-02 10:00:00 20.4 14 Nordeste 29 Norte 0 777.1 -- 36
2020-08-02 09:00:00 18.3 18 Norte 24 Norte 0 776.7 -- 40
2020-08-02 08:00:00 16.6 20 Norte 24 Norte 0 776.4 -- 45
2020-08-02 07:00:00 16.9 13 Norte 18 Nordeste 0 776.3 -- 44
2020-08-02 06:00:00 16.8 13 Nordeste 18 Nordeste 0 776.2 -- 45
2020-08-02 05:00:00 17 14 Nordeste 19 Nordeste 0 776.1 -- 45
2020-08-02 04:00:00 16.9 14 Nordeste 18 Nordeste 0 776.2 -- 43
2020-08-02 03:00:00 17.1 10 Nordeste 17 Nordeste 0 776.4 -- 36
2020-08-02 02:00:00 17.4 8 Nordeste 17 Norte 0 776.8 -- 27
2020-08-02 01:00:00 16.8 10 Norte 18 Norte 0 777.1 -- 29
2020-08-02 00:00:00 16.8 7 Noroeste 14 Noroeste 0 777.2 -- 32
2020-08-01 23:00:00 17.2 9 Noroeste 15 Norte 0 777.1 -- 42
2020-08-01 22:00:00 18.2 5 Noroeste 10 Noroeste 0 776.7 -- 39
2020-08-01 21:00:00 17.7 9 Noroeste 17 Noroeste 0 776.4 -- 43
2020-08-01 20:00:00 18.4 14 Noroeste 26 Noroeste 0 776.1 -- 49
2020-08-01 19:00:00 19.1 15 Noroeste 23 Noroeste 0 776 -- 48
2020-08-01 18:00:00 19.7 12 Noroeste 21 Noroeste 0 776.2 -- 46
2020-08-01 17:00:00 20.4 15 Noroeste 24 Noroeste 0 776.3 -- 46
2020-08-01 16:00:00 23 14 Noroeste 27 Noroeste 0 776.6 -- 39
2020-08-01 15:00:00 24.2 10 Norte 45 Norte 0 776.9 -- 33
2020-08-01 14:00:00 23.8 8 Norte 24 Noroeste 0 776.9 -- 34
2020-08-01 13:00:00 21.9 13 Noroeste 27 Noroeste 0 776.9 -- 41
2020-08-01 12:00:00 22.2 13 Norte 22 Noroeste 0 776.8 -- 39
2020-08-01 11:00:00 21.7 12 Este 24 Este 0 776.5 -- 32
2020-08-01 10:00:00 19.7 5 Este 15 Nordeste 0 776.2 -- 41
2020-08-01 09:00:00 17.8 3 Este 8 Este 0 775.9 -- 46
2020-08-01 08:00:00 16.7 7 Sudoeste 13 Oeste 0 775.5 -- 48
2020-08-01 07:00:00 16.5 9 Oeste 24 Sudoeste 0 775.1 -- 46
2020-08-01 06:00:00 16.9 21 Sudoeste 28 Sudoeste 0 775 -- 39
2020-08-01 05:00:00 15.8 9 Sur 15 Sudeste 0 774.8 -- 36
2020-08-01 04:00:00 15.8 17 Sudeste 19 Sudeste 0 775 -- 35
2020-08-01 03:00:00 16.3 15 Sudeste 21 Sudeste 0 775.1 -- 37
2020-08-01 02:00:00 16.3 19 Sudeste 22 Sudeste 0 775.4 -- 36
2020-08-01 01:00:00 16.6 20 Este 23 Este 0 775.6 -- 31
2020-08-01 00:00:00 16.9 17 Este 23 Este 0 775.8 -- 33
2020-07-31 23:00:00 17.2 14 Este 19 Este 0 775.7 -- 35
2020-07-31 22:00:00 17.6 9 Este 13 Este 0 775.1 -- 31
2020-07-31 21:00:00 18.4 8 Este 13 Este 0 774.6 -- 29
2020-07-31 20:00:00 20.3 5 Norte 23 Noroeste 0 774.2 -- 26
2020-07-31 19:00:00 21.3 13 Noroeste 22 Noroeste 0 773.8 -- 23
2020-07-31 18:00:00 21.8 12 Noroeste 25 Oeste 0 773.9 -- 21
2020-07-31 17:00:00 23.9 11 Noroeste 24 Noroeste 0 773.9 -- 18
2020-07-31 16:00:00 24.8 8 Nordeste 20 Nordeste 0 773.9 -- 27
2020-07-31 15:00:00 24.9 6 Sudoeste 31 Sur 0 773.9 -- 16
2020-07-31 14:00:00 24.4 12 Sudeste 24 Sudeste 0 774 -- 22
2020-07-31 13:00:00 24 13 Sudeste 35 Sudeste 0 774 -- 22
2020-07-31 12:00:00 22.5 24 Sudeste 37 Sur 0 774.1 -- 22
2020-07-31 11:00:00 22.5 17 Sudeste 26 Sudeste 0 773.7 -- 22
2020-07-31 10:00:00 21.3 14 Sudeste 24 Sur 0 773.5 -- 21
2020-07-31 09:00:00 18.6 22 Sur 28 Sur 0 773.4 -- 13
2020-07-31 08:00:00 17.3 13 Sur 20 Sur 0 772.9 -- 20
2020-07-31 07:00:00 16.9 15 Sudeste 22 Sudeste 0 772.6 -- 7
2020-07-31 06:00:00 17.7 19 Sur 22 Sur 0 772.6 -- 11
2020-07-31 05:00:00 18.2 22 Sur 26 Sur 0 772.4 -- 12
2020-07-31 04:00:00 18 26 Sur 32 Sur 0 772.4 -- 7
2020-07-31 03:00:00 18.5 28 Sur 31 Sur 0 772.7 -- 4
2020-07-31 02:00:00 18.7 25 Sudeste 28 Sudeste 0 773.1 -- 4
2020-07-31 01:00:00 19.2 20 Sudeste 22 Sudeste 0 773.5 -- 5
2020-07-31 00:00:00 19.6 13 Sur 17 Sur 0 773.5 -- 4
2020-07-30 23:00:00 19.7 14 Sur 19 Sur 0 773.2 -- 4
2020-07-30 22:00:00 19.7 15 Sur 19 Sur 0 772.8 -- 6
2020-07-30 21:00:00 21 16 Sur 21 Sur 0 772.4 -- 5
2020-07-30 20:00:00 23.6 13 Sur 33 Sur 0 772.1 -- 7
2020-07-30 19:00:00 25 15 Sudoeste 32 Sur 0 771.9 -- 7
2020-07-30 18:00:00 25.8 17 Sur 37 Oeste 0 772.1 -- 3
2020-07-30 17:00:00 25.7 17 Sur 37 Sur 0 772.1 -- 7
2020-07-30 16:00:00 25.9 17 Sur 48 Sudeste 0 772.2 -- 3
2020-07-30 15:00:00 25.7 22 Sur 41 Sudeste 0 772.3 -- 2
2020-07-30 14:00:00 24.5 23 Sur 38 Sudeste 0 772.4 -- 4
2020-07-30 13:00:00 24.2 18 Sur 34 Sur 0 772.3 -- 2
2020-07-30 12:00:00 23.3 18 Sur 33 Sur 0 772.2 -- 2
2020-07-30 11:00:00 23.6 17 Sudeste 30 Sur 0 771.9 -- 2
2020-07-30 10:00:00 23.4 8 Sur 24 Sudoeste 0 771.6 -- --
2020-07-30 09:00:00 20.5 14 Sudoeste 23 Sudoeste 0 771.3 -- --
2020-07-30 08:00:00 18.3 17 Sudoeste 24 Sudoeste 0 770.8 -- --
2020-07-30 07:00:00 17.7 15 Sur 19 Sur 0 770.4 -- --
2020-07-30 06:00:00 17.4 15 Sur 17 Sur 0 770.2 -- 1
2020-07-30 05:00:00 18 4 Oeste 10 Oeste 0 770.2 -- --
2020-07-30 04:00:00 17.8 4 Sudoeste 8 Sur 0 770.2 -- --
2020-07-30 03:00:00 17.5 5 Sudeste 7 Oeste 0 770.5 -- --
2020-07-30 02:00:00 16.9 9 Oeste 13 Oeste 0 771 -- --
2020-07-30 01:00:00 16.8 11 Noroeste 17 Noroeste 0 771.3 -- --
2020-07-30 00:00:00 16.3 15 Noroeste 19 Noroeste 0 771.5 -- --
2020-07-29 23:00:00 16.7 13 Noroeste 19 Noroeste 0 771.4 -- --
2020-07-29 22:00:00 16.8 17 Oeste 23 Oeste 0 771.1 -- --
2020-07-29 21:00:00 17.8 23 Oeste 33 Oeste 0 770.8 -- 1
2020-07-29 20:00:00 19.8 26 Oeste 40 Oeste 0 770.6 -- 3
2020-07-29 19:00:00 20.7 33 Oeste 41 Oeste 0 770.5 -- 3
2020-07-29 18:00:00 21.5 30 Oeste 39 Oeste 0 770.6 -- 6
2020-07-29 17:00:00 22.4 28 Oeste 36 Noroeste 0 771.1 -- 4
2020-07-29 16:00:00 23.5 18 Oeste 28 Noroeste 0 771.7 -- 4
2020-07-29 15:00:00 23.3 14 Oeste 24 Noroeste 0 772 -- 12
2020-07-29 14:00:00 24.4 10 Noroeste 19 Noroeste 0 772.5 -- 15
2020-07-29 13:00:00 24.7 6 Noroeste 15 Noroeste 0 772.9 -- 12
2020-07-29 12:00:00 22.6 10 Noroeste 22 Oeste 0 773.1 -- 12
2020-07-29 11:00:00 21.8 9 Oeste 18 Oeste 0 772.9 -- 11
2020-07-29 10:00:00 20.8 14 Oeste 26 Oeste 0 772.8 -- 12
2020-07-29 09:00:00 19.7 23 Oeste 35 Oeste 0 772.5 -- 9
2020-07-29 08:00:00 18.3 31 Oeste 38 Oeste 0 772.2 -- 10
2020-07-29 07:00:00 18.1 36 Oeste 44 Oeste 0 772 -- 10
2020-07-29 06:00:00 18 37 Oeste 41 Oeste 0 772 -- 16
2020-07-29 05:00:00 17.6 30 Oeste 35 Oeste 0 772.4 -- 17
2020-07-29 04:00:00 17.3 24 Oeste 26 Oeste 0 772.8 -- 18
2020-07-29 03:00:00 17.8 13 Oeste 14 Oeste 0 773.4 -- 16
2020-07-29 02:00:00 18.4 8 Oeste 13 Noroeste 0 774 -- 15
2020-07-29 01:00:00 18.4 9 Noroeste 15 Noroeste 0 774.5 -- 15
2020-07-29 00:00:00 18 13 Noroeste 19 Noroeste 0 775 -- 18
2020-07-28 23:00:00 18.4 17 Noroeste 24 Noroeste 0 774.9 -- 15
2020-07-28 22:00:00 18.8 18 Noroeste 26 Noroeste 0 774.7 -- 7
2020-07-28 21:00:00 19.5 21 Noroeste 30 Noroeste 0 774.6 -- --
2020-07-28 20:00:00 22 25 Noroeste 33 Noroeste 0 774.5 -- 2
2020-07-28 19:00:00 23.8 26 Noroeste 38 Noroeste 0 774.5 -- 5
2020-07-28 18:00:00 24.8 28 Noroeste 39 Noroeste 0 774.6 -- 8
2020-07-28 17:00:00 25.4 28 Noroeste 40 Noroeste 0 774.9 -- 10
2020-07-28 16:00:00 26.4 27 Noroeste 47 Noroeste 0 775.1 -- 9
2020-07-28 15:00:00 26.5 29 Noroeste 46 Noroeste 0 775.2 -- 7
2020-07-28 14:00:00 26.2 32 Noroeste 45 Oeste 0 775.6 -- 4
2020-07-28 13:00:00 25.9 32 Noroeste 41 Noroeste 0 775.8 -- 4
2020-07-28 12:00:00 26.2 19 Noroeste 30 Noroeste 0 776 -- 7
2020-07-28 11:00:00 25.6 15 Oeste 27 Oeste 0 775.9 -- 9
2020-07-28 10:00:00 23.8 12 Noroeste 36 Oeste 0 775.7 -- 11
2020-07-28 09:00:00 21.5 32 Oeste 40 Oeste 0 775 -- 12
2020-07-28 08:00:00 20.7 29 Oeste 34 Oeste 0 774.9 -- 12
2020-07-28 07:00:00 20 28 Oeste 36 Oeste 0 774.8 -- 12
2020-07-28 06:00:00 21 29 Oeste 35 Oeste 0 774.8 -- 13
2020-07-28 05:00:00 21.1 30 Oeste 36 Oeste 0 774.9 -- 12
2020-07-28 04:00:00 20.8 27 Oeste 33 Oeste 0 775 -- 14
2020-07-28 03:00:00 21.1 26 Oeste 33 Oeste 0 775.4 -- 14
2020-07-28 02:00:00 21 24 Oeste 30 Oeste 0 775.9 -- 13
2020-07-28 01:00:00 21 22 Oeste 29 Oeste 0 776.3 -- 13
2020-07-28 00:00:00 21.1 22 Oeste 30 Oeste 0 776.4 -- 12
2020-07-27 23:00:00 20.8 20 Oeste 23 Oeste 0 776.2 -- 12
2020-07-27 22:00:00 21.2 8 Oeste 21 Oeste 0 776.1 -- 11
2020-07-27 21:00:00 22.5 9 Oeste 15 Oeste 0 775.7 -- 7
2020-07-27 20:00:00 24.9 7 Oeste 16 Noroeste 0 775.4 -- 12
2020-07-27 19:00:00 26 8 Noroeste 36 Sudoeste 0 775.2 -- 9
2020-07-27 18:00:00 26.6 10 Sudoeste 28 Sur 0 775 -- 9
2020-07-27 17:00:00 27.5 5 Sudoeste 41 Oeste 0 775 -- 7
2020-07-27 16:00:00 27.1 6 Sudoeste 31 Oeste 0 775 -- 11
2020-07-27 15:00:00 27.6 9 Noroeste 45 Oeste 0 774.8 -- 13
2020-07-27 14:00:00 27.8 12 Oeste 50 Oeste 0 774.8 -- 10
2020-07-27 13:00:00 27.6 16 Oeste 55 Oeste 0 774.8 -- 10
2020-07-27 12:00:00 27.5 30 Sudoeste 51 Sudoeste 0 774.6 -- 9
2020-07-27 11:00:00 26.1 26 Sur 56 Sur 0 774.6 -- 8
2020-07-27 08:00:00 19.5 32 Sur 41 Sur 0 773.2 0.9 --
2020-07-27 07:00:00 19.3 29 Sur 39 Sur 0 772.7 0.3 --
2020-07-27 06:00:00 17.9 30 Sur 32 Sur 0 772.3 -0.3 --
2020-07-27 05:00:00 17.9 15 Sudeste 18 Sudeste 0 772.3 -0.5 --
2020-07-27 04:00:00 17.8 13 Sudeste 16 Nordeste 0 772.4 -0.7 --
2020-07-27 03:00:00 14.1 14 Nordeste 19 Este 0 772.6 -0.7 17
2020-07-27 02:00:00 14.3 13 Este 21 Nordeste 0 772.8 -0.3 21
2020-07-27 01:00:00 14.3 17 Nordeste 25 Nordeste 0 773.1 0.3 22
2020-07-27 00:00:00 14.7 19 Nordeste 25 Nordeste 0 773.3 1 19
2020-07-26 23:00:00 15.2 17 Nordeste 23 Nordeste 0 773.1 1.1 17
2020-07-26 22:00:00 14.6 15 Nordeste 22 Nordeste 0 772.8 0.9 21
2020-07-26 21:00:00 15.6 18 Nordeste 23 Nordeste 0 772.3 0.3 22
2020-07-26 20:00:00 17.3 9 Norte 21 Noroeste 0 772 -0.3 26
2020-07-26 19:00:00 17.7 13 Noroeste 23 Noroeste 0 771.9 -0.4 44
2020-07-26 18:00:00 18.9 14 Noroeste 26 Noroeste 0 772 -0.6 43
2020-07-26 17:00:00 19.3 11 Noroeste 31 Noroeste 0 772.3 -0.7 35
2020-07-26 16:00:00 19.7 22 Noroeste 32 Noroeste 0 772.3 -0.7 31
2020-07-26 15:00:00 20.1 14 Noroeste 26 Noroeste 0 772.6 -0.4 31
2020-07-26 14:00:00 20.8 9 Norte 21 Noroeste 0 773 0.2 30
2020-07-26 13:00:00 19.9 15 Noroeste 28 Noroeste 0 773 0.5 27
2020-07-26 12:00:00 20.5 13 Norte 30 Norte 0 773 0.7 22
2020-07-26 11:00:00 18.2 21 Norte 38 Norte 0 772.8 1.2 21
2020-07-26 10:00:00 16.2 22 Norte 36 Norte 0 772.5 1 28
2020-07-26 09:00:00 14.7 19 Norte 37 Norte 0 772.3 -- 31
2020-07-26 08:00:00 12.1 29 Noroeste 42 Noroeste 0 771.6 -- 36
2020-07-26 07:00:00 11.5 31 Noroeste 43 Norte 0 771.5 -- 39
2020-07-26 06:00:00 12.1 32 Norte 42 Norte 0 771.5 -- 36
2020-07-26 05:00:00 12.8 33 Norte 40 Norte 0 771.5 -- 34
2020-07-26 04:00:00 12.7 31 Noroeste 50 Noroeste 0 771.7 -- 33
2020-07-26 03:00:00 12.7 40 Noroeste 54 Noroeste 0 771.7 -- 31
2020-07-26 02:00:00 12.7 44 Noroeste 50 Noroeste 0 772.1 -- 22
2020-07-26 01:00:00 12.9 40 Noroeste 46 Norte 0 772.7 -- 10
2020-07-26 00:00:00 13.3 25 Noroeste 31 Norte 0 773.5 -- 7
2020-07-25 23:00:00 13.6 24 Noroeste 37 Norte 0 773.6 -- 10
2020-07-25 22:00:00 14.4 27 Norte 36 Norte 0 773.3 -- 11
2020-07-25 21:00:00 15.5 25 Noroeste 43 Noroeste 0 773 -- 13
2020-07-25 20:00:00 17.6 27 Noroeste 41 Noroeste 0 773 -- 10
2020-07-25 19:00:00 18.9 30 Noroeste 39 Noroeste 0 773 -- 6
2020-07-25 18:00:00 19.7 25 Noroeste 37 Noroeste 0 773.1 -- 9
2020-07-25 17:00:00 20.9 20 Noroeste 31 Noroeste 0 773.4 -- 9
2020-07-25 16:00:00 21 26 Noroeste 36 Noroeste 0 773.5 -- 11
2020-07-25 15:00:00 21.8 21 Noroeste 33 Noroeste 0 773.7 -- 11
2020-07-25 14:00:00 21.2 24 Noroeste 33 Noroeste 0 773.9 -- 9
2020-07-25 13:00:00 21.2 27 Noroeste 36 Noroeste 0 774 -- 7
2020-07-25 12:00:00 19.9 24 Noroeste 37 Noroeste 0 774 -- 8
2020-07-25 11:00:00 19.4 23 Noroeste 32 Noroeste 0 773.8 -- 11
2020-07-25 10:00:00 17.8 22 Noroeste 30 Oeste 0 773.7 -- 11
2020-07-25 09:00:00 15.9 27 Noroeste 36 Noroeste 0 773.4 -- 12
2020-07-25 08:00:00 14.1 28 Noroeste 36 Noroeste 0 772.8 -- 12
2020-07-25 07:00:00 14.4 27 Noroeste 36 Noroeste 0 772.6 -- 13
2020-07-25 06:00:00 14 23 Noroeste 32 Noroeste 0 772.8 -- 11
2020-07-25 05:00:00 14 27 Noroeste 36 Noroeste 0 772.7 -- 13
2020-07-25 04:00:00 14 28 Noroeste 35 Noroeste 0 772.9 -- 14
2020-07-25 03:00:00 14.7 29 Noroeste 39 Noroeste 0 773.2 -- 14
2020-07-25 02:00:00 15.1 27 Noroeste 35 Noroeste 0 773.8 -- 14
2020-07-25 01:00:00 14.8 25 Noroeste 36 Noroeste 0 774.3 -- 16
2020-07-25 00:00:00 15.2 27 Noroeste 34 Noroeste 0 774.6 -- 15
2020-07-24 23:00:00 15.5 23 Noroeste 30 Noroeste 0 -- -- 13
2020-07-24 22:00:00 15.8 23 Noroeste 32 Noroeste 0 774.4 -- 13
2020-07-24 21:00:00 16.9 23 Noroeste 38 Noroeste 0 774.2 -- 13
2020-07-24 20:00:00 19.4 32 Noroeste 40 Noroeste 0 773.8 -- 11
2020-07-24 19:00:00 20.7 33 Noroeste 43 Noroeste 0 773.7 -- 10
2020-07-24 18:00:00 22.2 32 Noroeste 41 Noroeste 0 773.9 -- 6
2020-07-24 17:00:00 23.1 31 Oeste 41 Noroeste 0 774 -- 9
2020-07-24 16:00:00 24.2 26 Noroeste 34 Noroeste 0 774.4 -- 10
2020-07-24 15:00:00 24.2 12 Noroeste 24 Noroeste 0 774.8 -- 11
2020-07-24 14:00:00 24.7 10 Noroeste 18 Noroeste 0 775 -- 10
2020-07-24 13:00:00 25.2 9 Oeste 19 Oeste 0 775 -- 10
2020-07-24 12:00:00 25.3 6 Oeste 15 Noroeste 0 775 -- 11
2020-07-24 11:00:00 25.4 8 Noroeste 21 Sudoeste 0 774.8 -- 11
2020-07-24 10:00:00 25.1 14 Sudoeste 28 Sudoeste 0 774.7 -- 5
2020-07-24 09:00:00 22.8 17 Sudoeste 25 Sudoeste 0 774.4 -- 1
2020-07-24 08:00:00 21.9 7 Sudoeste 13 Sudoeste 0 774.2 -- 5
2020-07-24 07:00:00 21.1 10 Oeste 17 Oeste 0 774 -- 5
2020-07-24 06:00:00 21.2 5 Sudoeste 14 Oeste 0 773.9 -- 4
2020-07-24 05:00:00 20.6 10 Oeste 15 Sudoeste 0 774 -- 8
2020-07-24 04:00:00 20.7 12 Oeste 16 Sudoeste 0 774.2 -- 12
2020-07-24 03:00:00 20.5 10 Sudoeste 13 Sudoeste 0 774.7 -- 8
2020-07-24 02:00:00 20.5 8 Sur 13 Sudeste 0 775.2 -- 14
2020-07-24 01:00:00 20.7 12 Sudeste 14 Sudeste 0 775.7 -- 17
2020-07-24 00:00:00 21.4 5 Sudeste 9 Oeste 0 776 -- 13
2020-07-23 23:00:00 20.7 8 Oeste 13 Oeste 0 775.9 -- --
2020-07-23 22:00:00 20.6 12 Oeste 15 Oeste 0 775.7 -- --
2020-07-23 21:00:00 22.1 13 Oeste 23 Oeste 0 775.5 -- --
2020-07-23 20:00:00 23.6 17 Oeste 24 Noroeste 0 775.2 -- 5
2020-07-23 19:00:00 24.2 18 Oeste 33 Oeste 0 775.2 -- 11
2020-07-23 18:00:00 25.2 25 Oeste 39 Noroeste 0 775.3 -- 12
2020-07-23 17:00:00 26.2 27 Oeste 39 Noroeste 0 775.3 -- 13
2020-07-23 16:00:00 25.9 23 Noroeste 36 Noroeste 0 775.5 -- 13
2020-07-23 15:00:00 26.1 13 Noroeste 28 Noroeste 0 776 -- 14
2020-07-23 14:00:00 26.8 10 Noroeste 23 Noroeste 0 776.4 -- 14
2020-07-23 13:00:00 26.8 10 Noroeste 19 Noroeste 0 776.6 -- 13
2020-07-23 12:00:00 27.3 5 Este 18 Este 0 776.6 -- 12
2020-07-23 11:00:00 25.2 8 Noroeste 19 Nordeste 0 776.4 -- 15
2020-07-23 10:00:00 24.7 5 Norte 10 Noroeste 0 776.1 -- 15
2020-07-23 09:00:00 23.1 7 Oeste 20 Sudoeste 0 775.7 -- 16
2020-07-23 08:00:00 20.6 17 Oeste 19 Oeste 0 775.5 -- 16
2020-07-23 07:00:00 19.6 17 Oeste 21 Oeste 0 775.3 -- 18
2020-07-23 06:00:00 19.7 19 Oeste 25 Oeste 0 775.2 -- 18
2020-07-23 05:00:00 19.7 19 Oeste 26 Oeste 0 775.1 -- 18
2020-07-23 04:00:00 19.8 22 Oeste 23 Oeste 0 775.2 -- 18
2020-07-23 03:00:00 19.5 17 Oeste 19 Oeste 0 775.7 -- 11
2020-07-23 02:00:00 19.7 16 Oeste 20 Oeste 0 776.2 -- 12
2020-07-23 01:00:00 19.6 16 Oeste 23 Oeste 0 776.6 -- 9
2020-07-23 00:00:00 19.9 23 Oeste 30 Oeste 0 776.4 -- 8
2020-07-22 23:00:00 20 26 Oeste 28 Oeste 0 776.1 -- 6
2020-07-22 22:00:00 20.2 24 Oeste 32 Oeste 0 775.8 -- 6
2020-07-22 21:00:00 20.6 22 Oeste 34 Oeste 0 775.4 -- 4
2020-07-22 20:00:00 22.4 27 Oeste 36 Oeste 0 775 -- 8
2020-07-22 19:00:00 23.2 27 Oeste 44 Noroeste 0 774.8 -- 7
2020-07-22 18:00:00 24.1 33 Oeste 46 Noroeste 0 774.6 -- 7
2020-07-22 17:00:00 24.8 24 Oeste 34 Noroeste 0 775 -- 8
2020-07-22 16:00:00 24.6 9 Noroeste 33 Norte 0 775.4 -- 9
2020-07-22 15:00:00 24.6 8 Norte 27 Norte 0 775.4 -- 11
2020-07-22 14:00:00 24.6 7 Norte 26 Noroeste 0 775.7 -- 11
2020-07-22 13:00:00 24.9 12 Noroeste 21 Noroeste 0 775.7 -- 12
2020-07-22 12:00:00 23.8 7 Noroeste 17 Noroeste 0 775.7 -- 12
2020-07-22 11:00:00 22.3 9 Noroeste 15 Norte 0 775.3 -- 13
2020-07-22 10:00:00 22.1 5 Oeste 23 Sudoeste 0 774.9 -- 9
2020-07-22 09:00:00 20.5 10 Sur 32 Sudoeste 0 774.8 -- 4
2020-07-22 08:00:00 19.1 23 Sudoeste 30 Sudoeste 0 774.2 -- 3
2020-07-22 07:00:00 18.2 22 Sur 30 Sudoeste 0 774 -- 5
2020-07-22 06:00:00 17.5 19 Sudoeste 23 Sudoeste 0 773.7 -- 6
2020-07-22 05:00:00 17.2 15 Sur 19 Sur 0 773.9 -- 12
2020-07-22 04:00:00 17.6 14 Sur 19 Sur 0 774.1 -- 10
2020-07-22 03:00:00 17.9 14 Sur 21 Sur 0 774.4 -- 11
2020-07-22 02:00:00 17.3 16 Sur 18 Sur 0 774.7 -- 13
2020-07-22 01:00:00 17.9 7 Sur 10 Sur 0 775 -- 14
2020-07-22 00:00:00 18 5 Sudoeste 8 Oeste 0 775.1 -- 17
2020-07-21 23:00:00 17.1 8 Oeste 15 Noroeste 0 774.9 -- 9
2020-07-21 22:00:00 17.5 14 Noroeste 15 Noroeste 0 774.4 -- 9
2020-07-21 21:00:00 19.2 12 Noroeste 17 Noroeste 0 774.2 -- 9
2020-07-21 20:00:00 20.9 12 Noroeste 24 Noroeste 0 773.8 -- 10
2020-07-21 19:00:00 21.4 17 Noroeste 26 Noroeste 0 773.5 -- 11
2020-07-21 18:00:00 22.1 9 Noroeste 35 Oeste 0 773.8 -- 8
2020-07-21 17:00:00 23.3 16 Noroeste 26 Noroeste 0 773.8 -- 10
2020-07-21 16:00:00 23.1 14 Noroeste 28 Noroeste 0 774 -- 12
2020-07-21 15:00:00 23.7 9 Noroeste 20 Norte 0 774.3 -- 11
2020-07-21 14:00:00 23 10 Noroeste 23 Norte 0 774.3 -- 11
2020-07-21 13:00:00 22.4 13 Noroeste 23 Noroeste 0 774.2 -- 11
2020-07-21 12:00:00 22.3 7 Norte 22 Noroeste 0 774.3 -- 10
2020-07-21 11:00:00 20.5 17 Oeste 30 Noroeste 0 773.9 -- 11
2020-07-21 10:00:00 18.6 24 Noroeste 32 Noroeste 0 773.3 -- 14
2020-07-21 09:00:00 16.7 27 Noroeste 33 Noroeste 0 772.8 -- 15
2020-07-21 08:00:00 15.7 24 Noroeste 34 Noroeste 0 772.4 -- 14
2020-07-21 07:00:00 14.6 24 Noroeste 32 Noroeste 0 772.2 -- 13
2020-07-21 06:00:00 14.9 21 Noroeste 26 Noroeste 0 772.4 -- 10
2020-07-21 05:00:00 15.2 19 Noroeste 24 Oeste 0 772.4 -- 7
2020-07-21 04:00:00 15.4 16 Oeste 22 Oeste 0 772.6 -- 5
2020-07-21 03:00:00 16 15 Oeste 21 Oeste 0 772.8 -- 7
2020-07-21 02:00:00 16.6 17 Noroeste 23 Noroeste 0 773.2 -- 6
2020-07-21 01:00:00 16.9 19 Noroeste 24 Noroeste 0 773.5 -- 1
2020-07-21 00:00:00 17 21 Oeste 32 Oeste 0 773.7 -- 3
2020-07-20 23:00:00 16.9 28 Oeste 37 Oeste 0 773.5 -- 6
2020-07-20 22:00:00 17.5 31 Oeste 36 Oeste 0 773.2 -- 16
2020-07-20 21:00:00 20.1 27 Oeste 37 Oeste 0 773.2 -- 14
2020-07-20 20:00:00 21.5 31 Oeste 41 Noroeste 0 773.1 -- 15
2020-07-20 19:00:00 22.2 32 Noroeste 44 Noroeste 0 773 -- 18
2020-07-20 18:00:00 22.5 34 Noroeste 44 Oeste 0 773.2 -- 18
2020-07-20 17:00:00 22.7 33 Noroeste 50 Noroeste 0 773.4 -- 20
2020-07-20 16:00:00 23.4 35 Oeste 48 Oeste 0 773.6 -- 22
2020-07-20 15:00:00 22.8 30 Noroeste 45 Oeste 0 773.9 -- 25
2020-07-20 14:00:00 22.6 33 Noroeste 46 Noroeste 0 774.1 -- 28
2020-07-20 13:00:00 22.6 28 Noroeste 40 Noroeste 0 774.3 -- 27
2020-07-20 12:00:00 22 28 Noroeste 38 Oeste 0 774.3 -- 26
2020-07-20 11:00:00 21 27 Noroeste 36 Noroeste 0 774.1 -- 30
2020-07-20 10:00:00 19.6 27 Oeste 33 Oeste 0 773.9 -- 29
2020-07-20 09:00:00 18 27 Oeste 34 Noroeste 0 773.5 -- 30
2020-07-20 08:00:00 16.7 29 Oeste 35 Oeste 0 773.3 -- 35
2020-07-20 07:00:00 16.1 25 Noroeste 31 Noroeste 0 773.2 -- 42
2020-07-20 06:00:00 16.4 21 Noroeste 28 Noroeste 0 773.3 -- 39
2020-07-20 05:00:00 16.5 21 Noroeste 28 Noroeste 0 773.6 -- 35
2020-07-20 04:00:00 16 20 Noroeste 26 Noroeste 0 773.8 -- 38
2020-07-20 03:00:00 16.5 21 Noroeste 27 Noroeste 0 774.2 -- 35
2020-07-20 02:00:00 16.9 22 Noroeste 31 Noroeste 0 774.8 -- 34
2020-07-20 01:00:00 16.8 24 Noroeste 33 Noroeste 0 775.1 -- 35
2020-07-20 00:00:00 16.8 20 Noroeste 30 Noroeste 0 775.4 -- 37
2020-07-19 23:00:00 17.2 24 Noroeste 29 Noroeste 0 775.2 -- 35
2020-07-19 22:00:00 17.8 18 Noroeste 26 Noroeste 0 775 -- 31
2020-07-19 21:00:00 18.6 16 Noroeste 27 Noroeste 0 774.7 -- 37
2020-07-19 20:00:00 20.9 16 Noroeste 28 Noroeste 0 774.7 -- 33
2020-07-19 19:00:00 23.1 15 Norte 24 Noroeste 0 774.6 -- 29
2020-07-19 18:00:00 22.6 9 Nordeste 22 Este 0 775 -- 27
2020-07-19 17:00:00 23.2 12 Este 24 Este 0 775.3 -- 26
2020-07-19 16:00:00 23.2 15 Este 34 Este 0 775.5 -- 25
2020-07-19 15:00:00 23.5 19 Este 37 Este 0 775.6 -- 24
2020-07-19 14:00:00 23.5 22 Este 40 Este 0 775.7 -- 24
2020-07-19 13:00:00 23 22 Este 36 Este 0.4 775.9 -- 23
2020-07-19 12:00:00 22.3 22 Este 43 Este 0 775.9 -- 25
2020-07-19 11:00:00 21.8 30 Este 44 Este 0 775.6 0.9 23
2020-07-19 10:00:00 21.2 26 Este 39 Este 0 775.3 0.8 21
2020-07-19 09:00:00 19.9 16 Nordeste 23 Este 0 775 0.5 29
2020-07-19 08:00:00 17.3 14 Nordeste 22 Nordeste 0 774.7 0.2 34
2020-07-19 07:00:00 17.1 17 Nordeste 27 Nordeste 0 774.5 -- 33
2020-07-19 06:00:00 17.3 18 Nordeste 26 Nordeste 0 774.5 -- 32
2020-07-19 05:00:00 17.2 15 Nordeste 22 Nordeste 0 774.5 -- 32
2020-07-19 04:00:00 17.4 13 Nordeste 19 Nordeste 0 774.6 -- 31
2020-07-19 03:00:00 17.2 14 Nordeste 21 Nordeste 0 775 -- 41
2020-07-19 02:00:00 17.7 13 Nordeste 19 Nordeste 0 775.5 -- 37
2020-07-19 01:00:00 17.9 16 Nordeste 24 Nordeste 0 775.8 -- 36
2020-07-19 00:00:00 18 17 Nordeste 24 Nordeste 0 776 -- 36
2020-07-18 23:00:00 18.3 15 Nordeste 21 Nordeste 0 775.8 -- 38
2020-07-18 22:00:00 18.7 9 Norte 25 Nordeste 0 775.4 -- 36
2020-07-18 21:00:00 19.9 14 Nordeste 20 Nordeste 0 774.8 -- 29
2020-07-18 20:00:00 20.7 9 Noroeste 16 Noroeste 0 775 -- 32
2020-07-18 19:00:00 21.7 4 Norte 17 Este 0 774.9 -- 35
2020-07-18 18:00:00 22.5 8 Este 20 Este 0 775.1 -- 30
2020-07-18 17:00:00 23.1 10 Este 24 Este 0 775.3 -- 27
2020-07-18 16:00:00 23.8 17 Este 35 Este 0 775.3 -- 26
2020-07-18 15:00:00 24.4 19 Este 33 Este 0 775.4 -- 26
2020-07-18 14:00:00 23.8 14 Este 34 Este 0 775.6 -- 27
2020-07-18 13:00:00 23.2 21 Sudeste 30 Este 0 775.7 -- 27
2020-07-18 12:00:00 22.7 12 Este 24 Este 0 775.7 -- 27
2020-07-18 11:00:00 22.4 12 Este 22 Nordeste 0 775.5 -- 29
2020-07-18 10:00:00 21.2 8 Norte 13 Norte 0 775.2 -- 32
2020-07-18 09:00:00 19.3 7 Noroeste 9 Noroeste 0 774.9 -- 36
2020-07-18 08:00:00 18.3 7 Oeste 12 Noroeste 0 774.5 -- 36
2020-07-18 07:00:00 17.9 9 Oeste 12 Oeste 0 774.3 -- 36
2020-07-18 06:00:00 18.1 10 Oeste 11 Oeste 0 774.2 -- 38
2020-07-18 05:00:00 18.5 8 Oeste 11 Noroeste 0 774.2 -- 38
2020-07-18 04:00:00 18.2 8 Sur 12 Sur 0 774.3 -- 39
2020-07-18 03:00:00 18 10 Sur 12 Sur 0 774.6 -- 40
2020-07-18 02:00:00 18.6 11 Sur 12 Sur 0 775 -- 39
2020-07-18 01:00:00 18.5 11 Sur 14 Sur 0 775.3 -- 36
2020-07-18 00:00:00 18.6 13 Sur 14 Sur 0 775.4 -- 35
2020-07-17 23:00:00 19.5 12 Sur 16 Sur 0 775.3 -- 33
2020-07-17 22:00:00 19.4 13 Sur 16 Sur 0 774.9 -- 35
2020-07-17 21:00:00 20 11 Sur 15 Sur 0 774.5 -- 33
2020-07-17 20:00:00 21.6 10 Sur 23 Sur 0 774.2 -- 29
2020-07-17 19:00:00 22.5 13 Sur 27 Sur 0 774.3 -- 27
2020-07-17 18:00:00 22.9 16 Sudeste 32 Sudeste 0 774.4 -- 26
2020-07-17 17:00:00 23.8 18 Sudeste 31 Sudeste 0 774.5 -- 25
2020-07-17 16:00:00 24 19 Sudeste 37 Sudeste 0 774.6 -- 26
2020-07-17 15:00:00 23.7 18 Sudeste 37 Sur 0 774.7 -- 27
2020-07-17 14:00:00 24.4 21 Sudeste 36 Sudeste 0 774.9 -- 25
2020-07-17 13:00:00 24 17 Sudeste 36 Sudeste 0 774.9 -- 25
2020-07-17 12:00:00 23.2 21 Sudeste 39 Sur 0 774.8 -- 19
2020-07-17 11:00:00 22.7 22 Sudeste 36 Sudeste 0 774.5 -- 20
2020-07-17 10:00:00 21.7 22 Sur 34 Sur 0 774.3 -- 23
2020-07-17 09:00:00 19.6 26 Sur 37 Sur 0 774.1 -- 30
2020-07-17 08:00:00 17.4 29 Sur 34 Sur 0 773.6 -- 38
2020-07-17 07:00:00 17.2 30 Sur 35 Sur 0 773.3 -- 37
2020-07-17 06:00:00 16.9 26 Sur 38 Sur 0 773.1 -- 38
2020-07-17 05:00:00 17 30 Sur 38 Sur 0 773.1 -- 33
2020-07-17 04:00:00 17 33 Sur 41 Sur 0 773.1 -- 33
2020-07-17 03:00:00 17.1 35 Sur 42 Sur 0 773.4 -- 37
2020-07-17 02:00:00 16.9 32 Sur 41 Sur 0 773.7 -- 44
2020-07-17 01:00:00 17.1 30 Sur 36 Sur 0 774 -- 40
2020-07-17 00:00:00 17.5 28 Sur 33 Sur 0 774.2 -- 31
2020-07-16 23:00:00 17.8 26 Sur 32 Sur 0 774.1 -- 27
2020-07-16 22:00:00 17.9 27 Sur 33 Sur 0 773.8 -- 24
2020-07-16 21:00:00 17.9 22 Sur 27 Sur 0 773.5 -- 33
2020-07-16 20:00:00 19.2 22 Sudeste 34 Sudeste 0 773.2 -- 30
2020-07-16 19:00:00 20.4 22 Sudeste 33 Sudeste 0 773.2 -- 24
2020-07-16 18:00:00 21.2 24 Sudeste 34 Sudeste 0 773.1 -- 19
2020-07-16 17:00:00 21.7 23 Sudeste 35 Sudeste 0 773.1 -- 21
2020-07-16 16:00:00 23.3 17 Sudeste 32 Sur 0 773.2 -- 21
2020-07-16 15:00:00 23.2 19 Sudeste 36 Sudeste 0 773.1 -- 21
2020-07-16 14:00:00 23.1 17 Sudeste 34 Sudeste 0 773 -- 17
2020-07-16 13:00:00 22.1 22 Sudeste 40 Sudeste 0 773.1 -- 15
2020-07-16 12:00:00 22 24 Sudeste 40 Sudeste 0 773 -- 14
2020-07-16 11:00:00 21.3 27 Sudeste 37 Sudeste 0 772.8 -- 13
2020-07-16 10:00:00 20.6 25 Sudeste 37 Sudeste 0 772.4 -- 16
2020-07-16 09:00:00 19.4 21 Sudeste 28 Sudeste 0 772 -- 19
2020-07-16 08:00:00 17.8 19 Sudeste 23 Sudeste 0 771.4 -- 21
2020-07-16 07:00:00 17.2 15 Sudeste 17 Sudeste 0 771 -- 22
2020-07-16 06:00:00 17.2 11 Sudeste 15 Sur 0 770.7 -- 22
2020-07-16 05:00:00 17.1 14 Sur 16 Sudeste 0 770.7 -- 22
2020-07-16 04:00:00 17.7 10 Sur 13 Sur 0 770.6 -- 19
2020-07-16 03:00:00 18.2 10 Sur 13 Sur 0 770.7 -- 11
2020-07-16 02:00:00 17.8 8 Sur 13 Sur 0 771.1 -- 9
2020-07-16 01:00:00 17.9 9 Sur 13 Sudeste 0 771.3 -- 7
2020-07-16 00:00:00 17.6 8 Sur 13 Sudoeste 0 771.4 -- 16
2020-07-15 23:00:00 17.6 9 Sudoeste 15 Oeste 0 771.1 -- 13
2020-07-15 22:00:00 18.2 5 Sudoeste 10 Sudoeste 0 770.8 -- 22
2020-07-15 21:00:00 19.3 4 Oeste 10 Oeste 0 770.5 -- 22
2020-07-15 20:00:00 20.8 6 Noroeste 13 Noroeste 0 770.2 -- 24
2020-07-15 19:00:00 20.8 13 Noroeste 21 Oeste 0 770 -- 28
2020-07-15 18:00:00 21.5 9 Noroeste 25 Norte 0 770 -- 28
2020-07-15 17:00:00 22 8 Norte 37 Sur 0 770.2 -- 30
2020-07-15 16:00:00 21.6 8 Nordeste 22 Nordeste 0 770.2 -- 30
2020-07-15 15:00:00 21.2 9 Este 21 Este 0 770.4 -- 31
2020-07-15 14:00:00 20.4 11 Nordeste 26 Este 0 770.5 -- 24
2020-07-15 13:00:00 20.3 15 Este 26 Este 0 770.7 -- 20
2020-07-15 12:00:00 19.5 14 Este 27 Este 0 770.7 -- 19
2020-07-15 11:00:00 18.6 17 Este 27 Este 0 770.5 -- 18
2020-07-15 10:00:00 17.8 17 Este 28 Este 0 770.2 -- 15
2020-07-15 09:00:00 16.3 16 Este 25 Este 0 770.1 -- 15
2020-07-15 08:00:00 14.1 18 Este 30 Este 0 769.7 -- 20
2020-07-15 07:00:00 12.3 22 Nordeste 36 Nordeste 0 769.4 -- 22
2020-07-15 06:00:00 11.9 25 Este 41 Este 0 769.2 -- 25
2020-07-15 05:00:00 12 33 Este 45 Nordeste 0 769.1 -- 28
2020-07-15 04:00:00 12.1 34 Nordeste 47 Nordeste 0 769.3 -- 27
2020-07-15 03:00:00 12.5 30 Nordeste 49 Nordeste 0 769.9 -- 24
2020-07-15 02:00:00 12.6 31 Nordeste 51 Nordeste 0 770.3 -- 23
2020-07-15 01:00:00 12.9 34 Nordeste 55 Nordeste 0 770.8 -- 21
2020-07-15 00:00:00 13 32 Nordeste 54 Nordeste 0 770.9 -- 19